createdAt,value
2022-11-05T00:00:49.905Z,97394.56
2022-11-05T00:03:36.147Z,97392.09
2022-11-05T00:06:22.485Z,97388.56
2022-11-05T00:09:17.693Z,97402.00
2022-11-05T00:12:04.019Z,97404.69
2022-11-05T00:14:51.645Z,97407.00
2022-11-05T00:17:20.517Z,97417.34
2022-11-05T00:19:49.456Z,97424.34
2022-11-05T00:22:35.582Z,97422.91
2022-11-05T00:25:17.761Z,97421.44
2022-11-05T00:27:47.473Z,97426.81
2022-11-05T00:30:19.288Z,97430.34
2022-11-05T00:32:48.718Z,97434.88
2022-11-05T00:35:18.043Z,97427.03
2022-11-05T00:37:50.093Z,97429.50
2022-11-05T00:40:19.762Z,97428.88
2022-11-05T00:43:06.339Z,97441.31
2022-11-05T00:45:37.875Z,97437.78
2022-11-05T00:48:24.557Z,97445.00
2022-11-05T00:50:53.350Z,97443.19
2022-11-05T00:53:22.264Z,97443.19
2022-11-05T00:55:51.053Z,97445.00
2022-11-05T00:58:20.759Z,97436.13
2022-11-05T01:00:52.412Z,97432.59
2022-11-05T01:03:22.187Z,97429.91
2022-11-05T01:05:52.138Z,97429.09
2022-11-05T01:08:22.625Z,97434.25
2022-11-05T01:10:52.176Z,97438.81
2022-11-05T01:13:26.039Z,97439.63
2022-11-05T01:15:56.301Z,97442.31
2022-11-05T01:18:25.501Z,97454.13
2022-11-05T01:20:54.301Z,97440.69
2022-11-05T01:23:23.251Z,97435.28
2022-11-05T01:25:52.071Z,97438.81
2022-11-05T01:28:21.109Z,97443.38
2022-11-05T01:30:58.359Z,97448.75
2022-11-05T01:33:27.524Z,97451.63
2022-11-05T01:35:56.250Z,97460.53
2022-11-05T01:38:25.266Z,97468.59
2022-11-05T01:40:54.223Z,97471.28
2022-11-05T01:43:24.043Z,97471.28
2022-11-05T01:45:54.052Z,97476.66
2022-11-05T01:48:25.038Z,97481.19
2022-11-05T01:50:57.294Z,97488.25
2022-11-05T01:53:28.680Z,97481.00
2022-11-05T01:56:00.482Z,97482.88
2022-11-05T01:58:36.095Z,97495.47
2022-11-05T02:01:05.007Z,97506.25
2022-11-05T02:03:35.327Z,97496.31
2022-11-05T02:06:04.153Z,97481.41
2022-11-05T02:08:43.564Z,97496.50
2022-11-05T02:11:13.582Z,97513.44
2022-11-05T02:13:42.442Z,97512.63
2022-11-05T02:16:14.020Z,97515.31
2022-11-05T02:18:48.384Z,97530.63
2022-11-05T02:21:56.674Z,97522.56
2022-11-05T02:24:51.038Z,97521.09
2022-11-05T02:27:22.441Z,97518.22
2022-11-05T02:30:23.208Z,97529.16
2022-11-05T02:33:03.515Z,97533.31
2022-11-05T02:35:43.833Z,97532.66
2022-11-05T02:38:14.805Z,97540.72
2022-11-05T02:40:48.547Z,97552.94
2022-11-05T02:43:21.919Z,97544.88
2022-11-05T02:45:53.321Z,97548.63
2022-11-05T02:48:27.944Z,97557.69
2022-11-05T02:51:00.729Z,97551.31
2022-11-05T02:53:33.517Z,97543.25
2022-11-05T02:56:04.041Z,97558.72
2022-11-05T02:58:34.280Z,97564.94
2022-11-05T03:01:06.961Z,97557.91
2022-11-05T03:03:38.659Z,97555.84
2022-11-05T03:06:18.067Z,97560.38
2022-11-05T03:09:10.693Z,97560.38
2022-11-05T03:11:42.880Z,97565.75
2022-11-05T03:14:16.659Z,97572.16
2022-11-05T03:16:48.323Z,97579.41
2022-11-05T03:19:20.926Z,97572.16
2022-11-05T03:21:51.640Z,97584.78
2022-11-05T03:24:21.662Z,97592.03
2022-11-05T03:26:52.535Z,97593.91
2022-11-05T03:29:23.273Z,97596.59
2022-11-05T03:31:52.626Z,97598.22
2022-11-05T03:34:26.090Z,97589.94
2022-11-05T03:36:55.917Z,97590.34
2022-11-05T03:39:28.861Z,97591.00
2022-11-05T03:41:58.229Z,97604.66
2022-11-05T03:44:28.499Z,97615.41
2022-11-05T03:47:00.437Z,97621.59
2022-11-05T03:49:34.328Z,97618.91
2022-11-05T03:52:05.706Z,97619.91
2022-11-05T03:54:34.849Z,97611.25
2022-11-05T03:57:06.055Z,97606.47
2022-11-05T03:59:39.599Z,97612.91
2022-11-05T04:02:08.575Z,97623.66
2022-11-05T04:04:39.018Z,97626.34
2022-11-05T04:07:25.369Z,97627.38
2022-11-05T04:10:11.528Z,97647.84
2022-11-05T04:12:57.610Z,97658.59
2022-11-05T04:15:27.101Z,97642.47
2022-11-05T04:17:55.560Z,97639.97
2022-11-05T04:20:43.737Z,97636.44
2022-11-05T04:23:30.009Z,97640.81
2022-11-05T04:25:58.937Z,97635.63
2022-11-05T04:28:48.326Z,97640.81
2022-11-05T04:31:16.236Z,97639.34
2022-11-05T04:33:45.004Z,97645.34
2022-11-05T04:36:15.287Z,97638.13
2022-11-05T04:38:44.100Z,97641.81
2022-11-05T04:41:16.696Z,97650.72
2022-11-05T04:43:45.811Z,97653.63
2022-11-05T04:46:14.727Z,97653.63
2022-11-05T04:48:43.555Z,97647.19
2022-11-05T04:51:14.036Z,97651.75
2022-11-05T04:53:42.780Z,97656.31
2022-11-05T04:56:12.710Z,97657.94
2022-11-05T04:58:42.005Z,97660.63
2022-11-05T05:01:13.807Z,97665.00
2022-11-05T05:03:42.688Z,97660.63
2022-11-05T05:06:11.616Z,97666.84
2022-11-05T05:08:41.816Z,97664.53
2022-11-05T05:11:11.947Z,97677.81
2022-11-05T05:13:40.796Z,97676.97
2022-11-05T05:16:10.427Z,97676.97
2022-11-05T05:18:43.637Z,97683.38
2022-11-05T05:21:32.744Z,97686.06
2022-11-05T05:24:03.004Z,97692.66
2022-11-05T05:26:32.021Z,97695.34
2022-11-05T05:29:01.296Z,97683.97
2022-11-05T05:31:30.147Z,97689.97
2022-11-05T05:33:59.017Z,97685.81
2022-11-05T05:36:27.927Z,97670.53
2022-11-05T05:38:56.818Z,97682.09
2022-11-05T05:41:27.144Z,97701.75
2022-11-05T05:43:55.997Z,97712.28
2022-11-05T05:46:25.141Z,97710.63
2022-11-05T05:48:53.995Z,97707.13
2022-11-05T05:51:22.841Z,97709.16
2022-11-05T05:53:53.818Z,97710.84
2022-11-05T05:56:22.659Z,97712.28
2022-11-05T05:58:53.331Z,97724.28
2022-11-05T06:01:22.215Z,97726.97
2022-11-05T06:03:51.157Z,97737.72
2022-11-05T06:06:21.180Z,97740.41
2022-11-05T06:08:50.268Z,97739.78
2022-11-05T06:11:19.042Z,97746.81
2022-11-05T06:13:47.778Z,97750.31
2022-11-05T06:16:19.443Z,97748.28
2022-11-05T06:18:48.317Z,97750.97
2022-11-05T06:21:18.102Z,97759.84
2022-11-05T06:23:48.468Z,97776.19
2022-11-05T06:26:18.367Z,97775.38
2022-11-05T06:28:47.252Z,97791.84
2022-11-05T06:31:17.942Z,97790.19
2022-11-05T06:33:47.291Z,97791.41
2022-11-05T06:36:17.285Z,97786.22
2022-11-05T06:38:46.066Z,97798.00
2022-11-05T06:41:14.841Z,97806.69
2022-11-05T06:43:43.748Z,97814.00
2022-11-05T06:46:12.668Z,97813.16
2022-11-05T06:48:42.941Z,97826.66
2022-11-05T06:51:11.908Z,97831.69
2022-11-05T06:53:40.708Z,97848.66
2022-11-05T06:56:09.897Z,97837.06
2022-11-05T06:58:38.716Z,97852.81
2022-11-05T07:01:09.040Z,97842.78
2022-11-05T07:03:37.998Z,97850.13
2022-11-05T07:06:08.732Z,97847.69
2022-11-05T07:08:38.019Z,97848.69
2022-11-05T07:11:07.033Z,97845.75
2022-11-05T07:13:35.921Z,97868.94
2022-11-05T07:16:04.796Z,97864.19
2022-11-05T07:18:33.713Z,97865.88
2022-11-05T07:21:02.491Z,97872.91
2022-11-05T07:23:32.616Z,97860.47
2022-11-05T07:26:02.914Z,97876.78
2022-11-05T07:28:31.732Z,97877.63
2022-11-05T07:31:00.689Z,97876.78
2022-11-05T07:33:35.243Z,97875.97
2022-11-05T07:36:05.520Z,97880.69
2022-11-05T07:38:35.808Z,97884.84
2022-11-05T07:41:04.644Z,97886.72
2022-11-05T07:43:33.564Z,97887.53
2022-11-05T07:46:02.351Z,97897.09
2022-11-05T07:48:31.225Z,97893.41
2022-11-05T07:51:00.076Z,97897.09
2022-11-05T07:53:28.888Z,97892.53
2022-11-05T07:55:59.145Z,97893.19
2022-11-05T07:58:28.020Z,97918.44
2022-11-05T08:00:58.140Z,97904.44
2022-11-05T08:03:27.175Z,97902.69
2022-11-05T08:05:56.276Z,97911.16
2022-11-05T08:08:25.126Z,97905.50
2022-11-05T08:10:54.038Z,97910.13
2022-11-05T08:13:24.215Z,97899.34
2022-11-05T08:15:53.266Z,97899.56
2022-11-05T08:18:22.097Z,97907.63
2022-11-05T08:20:51.031Z,97902.63
2022-11-05T08:23:19.926Z,97910.31
2022-11-05T08:25:48.840Z,97911.53
2022-11-05T08:28:17.663Z,97913.19
2022-11-05T08:30:50.450Z,97919.97
2022-11-05T08:33:19.269Z,97930.34
2022-11-05T08:35:48.086Z,97922.00
2022-11-05T08:38:17.806Z,97927.44
2022-11-05T08:40:47.456Z,97937.00
2022-11-05T08:43:16.211Z,97927.28
2022-11-05T08:45:44.931Z,97938.69
2022-11-05T08:48:16.011Z,97941.44
2022-11-05T08:50:45.089Z,97947.41
2022-11-05T08:53:14.316Z,97939.94
2022-11-05T08:55:43.981Z,97951.53
2022-11-05T08:58:15.222Z,97947.63
2022-11-05T09:00:44.239Z,97956.09
2022-11-05T09:03:15.218Z,97951.19
2022-11-05T09:05:44.540Z,97941.25
2022-11-05T09:08:14.672Z,97955.34
2022-11-05T09:10:43.563Z,97939.84
2022-11-05T09:13:18.228Z,97945.22
2022-11-05T09:15:49.231Z,97946.91
2022-11-05T09:18:22.590Z,97953.28
2022-11-05T09:20:51.375Z,97950.41
2022-11-05T09:23:20.466Z,97956.25
2022-11-05T09:25:49.267Z,97954.59
2022-11-05T09:28:20.423Z,97965.34
2022-11-05T09:30:49.978Z,97955.41
2022-11-05T09:33:19.333Z,97963.66
2022-11-05T09:35:49.519Z,97962.44
2022-11-05T09:38:18.587Z,97962.44
2022-11-05T09:40:54.510Z,97974.69
2022-11-05T09:43:31.209Z,97968.31
2022-11-05T09:46:00.931Z,97976.53
2022-11-05T09:48:30.703Z,97980.72
2022-11-05T09:51:00.864Z,97974.50
2022-11-05T09:53:29.767Z,97977.84
2022-11-05T09:56:00.009Z,97988.59
2022-11-05T09:58:37.171Z,97980.34
2022-11-05T10:01:06.232Z,97987.78
2022-11-05T10:03:35.074Z,97985.91
2022-11-05T10:06:08.831Z,97991.84
2022-11-05T10:08:41.524Z,97991.47
2022-11-05T10:11:12.845Z,97993.16
2022-11-05T10:13:44.058Z,97989.16
2022-11-05T10:16:23.171Z,97995.84
2022-11-05T10:18:54.527Z,98003.72
2022-11-05T10:21:51.328Z,97996.47
2022-11-05T10:24:15.177Z,97995.63
2022-11-05T10:26:46.131Z,98000.19
2022-11-05T10:29:16.914Z,98009.91
2022-11-05T10:31:45.725Z,98014.47
2022-11-05T10:34:17.875Z,98013.63
2022-11-05T10:36:48.121Z,98017.97
2022-11-05T10:39:18.129Z,98010.94
2022-11-05T10:42:00.751Z,98011.31
2022-11-05T10:44:34.212Z,98011.13
2022-11-05T10:47:10.119Z,97995.00
2022-11-05T10:49:45.782Z,98005.75
2022-11-05T10:52:21.910Z,98008.44
2022-11-05T10:54:51.202Z,98003.06
2022-11-05T10:57:31.415Z,98014.66
2022-11-05T11:00:24.267Z,98018.38
2022-11-05T11:02:54.557Z,98015.69
2022-11-05T11:05:24.914Z,98025.44
2022-11-05T11:07:59.511Z,98022.75
2022-11-05T11:10:31.756Z,98025.44
2022-11-05T11:13:00.557Z,98028.13
2022-11-05T11:15:32.556Z,98021.25
2022-11-05T11:18:18.832Z,98021.59
2022-11-05T11:20:47.772Z,98026.63
2022-11-05T11:23:18.202Z,98032.00
2022-11-05T11:25:48.956Z,98029.94
2022-11-05T11:28:23.911Z,98036.53
2022-11-05T11:30:55.545Z,98046.66
2022-11-05T11:33:27.176Z,98047.50
2022-11-05T11:35:57.913Z,98044.59
2022-11-05T11:38:30.250Z,98045.81
2022-11-05T11:41:03.611Z,98041.91
2022-11-05T11:43:34.474Z,98046.28
2022-11-05T11:46:07.803Z,98050.19
2022-11-05T11:48:38.746Z,98053.03
2022-11-05T11:51:31.175Z,98057.03
2022-11-05T11:54:02.184Z,98043.78
2022-11-05T11:56:32.658Z,98050.84
2022-11-05T11:59:04.096Z,98051.00
2022-11-05T12:01:59.373Z,98053.88
2022-11-05T12:04:52.757Z,98053.03
2022-11-05T12:07:29.416Z,98060.44
2022-11-05T12:10:09.450Z,98060.09
2022-11-05T12:12:40.644Z,98061.09
2022-11-05T12:15:22.922Z,98070.75
2022-11-05T12:17:53.412Z,98068.34
2022-11-05T12:20:37.241Z,98068.78
2022-11-05T12:23:23.058Z,98071.88
2022-11-05T12:25:56.654Z,98071.41
2022-11-05T12:29:12.173Z,98070.22
2022-11-05T12:31:36.703Z,98078.06
2022-11-05T12:34:13.712Z,98080.41
2022-11-05T12:36:53.171Z,98081.41
2022-11-05T12:39:36.615Z,98078.94
2022-11-05T12:42:09.328Z,98086.78
2022-11-05T12:44:56.260Z,98091.34
2022-11-05T12:47:44.582Z,98092.66
2022-11-05T12:50:18.346Z,98088.94
2022-11-05T12:53:17.094Z,98094.47
2022-11-05T12:55:48.727Z,98091.63
2022-11-05T12:58:22.257Z,98094.09
2022-11-05T13:00:53.084Z,98103.03
2022-11-05T13:03:28.496Z,98099.31
2022-11-05T13:06:05.449Z,98103.66
2022-11-05T13:08:37.946Z,98107.84
2022-11-05T13:11:12.871Z,98118.78
2022-11-05T13:13:45.410Z,98125.00
2022-11-05T13:16:14.925Z,98122.31
2022-11-05T13:18:46.233Z,98133.91
2022-11-05T13:21:15.056Z,98130.84
2022-11-05T13:23:45.547Z,98134.72
2022-11-05T13:26:19.729Z,98139.75
2022-11-05T13:28:55.031Z,98140.38
2022-11-05T13:31:25.503Z,98141.41
2022-11-05T13:33:54.544Z,98153.00
2022-11-05T13:36:42.138Z,98154.88
2022-11-05T13:39:15.747Z,98158.38
2022-11-05T13:41:54.960Z,98151.97
2022-11-05T13:44:47.765Z,98157.34
2022-11-05T13:47:29.427Z,98155.53
2022-11-05T13:50:25.891Z,98153.47
2022-11-05T13:53:06.478Z,98157.63
2022-11-05T13:56:07.390Z,98154.50
2022-11-05T13:59:11.458Z,98161.75
2022-11-05T14:01:50.757Z,98161.06
2022-11-05T14:04:28.818Z,98161.53
2022-11-05T14:07:05.868Z,98167.13
2022-11-05T14:09:35.574Z,98161.75
2022-11-05T14:12:05.155Z,98177.50
2022-11-05T14:14:41.433Z,98184.25
2022-11-05T14:17:22.441Z,98190.66
2022-11-05T14:19:53.055Z,98200.59
2022-11-05T14:22:41.280Z,98218.59
2022-11-05T14:26:01.789Z,98218.59
2022-11-05T14:28:42.788Z,98219.59
2022-11-05T14:31:47.381Z,98223.31
2022-11-05T14:34:48.971Z,98234.91
2022-11-05T14:37:28.360Z,98232.03
2022-11-05T14:39:57.456Z,98238.44
2022-11-05T14:42:27.956Z,98233.03
2022-11-05T14:45:02.152Z,98238.25
2022-11-05T14:47:33.945Z,98240.94
2022-11-05T14:50:11.575Z,98252.53
2022-11-05T14:52:41.015Z,98252.34
2022-11-05T14:55:28.492Z,98252.34
2022-11-05T14:58:34.416Z,98254.84
2022-11-05T15:01:03.917Z,98255.69
2022-11-05T15:04:03.663Z,98251.16
2022-11-05T15:06:35.279Z,98267.31
2022-11-05T15:09:22.839Z,98271.81
2022-11-05T15:12:09.171Z,98268.97
2022-11-05T15:14:42.327Z,98263.41
2022-11-05T15:17:17.399Z,98277.69
2022-11-05T15:19:49.421Z,98279.38
2022-11-05T15:22:28.242Z,98283.75
2022-11-05T15:24:57.138Z,98289.97
2022-11-05T15:27:40.688Z,98289.16
2022-11-05T15:30:19.803Z,98291.84
2022-11-05T15:32:48.666Z,98284.75
2022-11-05T15:35:23.480Z,98292.84
2022-11-05T15:38:00.354Z,98293.84
2022-11-05T15:40:32.562Z,98300.03
2022-11-05T15:43:20.724Z,98310.13
2022-11-05T15:46:07.041Z,98316.19
2022-11-05T15:48:36.263Z,98315.34
2022-11-05T15:51:05.153Z,98305.59
2022-11-05T15:54:08.430Z,98317.22
2022-11-05T15:56:29.131Z,98306.63
2022-11-05T15:59:00.144Z,98315.53
2022-11-05T16:01:31.211Z,98319.41
2022-11-05T16:04:04.465Z,98322.75
2022-11-05T16:06:38.793Z,98317.75
2022-11-05T16:09:08.970Z,98314.03
2022-11-05T16:11:37.912Z,98321.28
2022-11-05T16:14:16.992Z,98322.31
2022-11-05T16:16:46.031Z,98325.97
2022-11-05T16:19:39.881Z,98328.88
2022-11-05T16:22:09.738Z,98327.19
2022-11-05T16:24:39.823Z,98333.75
2022-11-05T16:27:18.960Z,98337.13
2022-11-05T16:30:18.066Z,98333.59
2022-11-05T16:32:46.976Z,98343.53
2022-11-05T16:35:20.723Z,98342.69
2022-11-05T16:37:52.227Z,98349.06
2022-11-05T16:40:24.088Z,98348.22
2022-11-05T16:42:53.173Z,98359.81
2022-11-05T16:45:22.615Z,98357.97
2022-11-05T16:47:51.578Z,98364.38
2022-11-05T16:50:23.731Z,98362.72
2022-11-05T16:52:52.738Z,98372.97
2022-11-05T16:55:22.891Z,98374.66
2022-11-05T16:57:55.430Z,98380.69
2022-11-05T17:00:24.605Z,98377.34
2022-11-05T17:02:53.822Z,98381.69
2022-11-05T17:05:24.541Z,98382.16
2022-11-05T17:07:53.581Z,98379.69
2022-11-05T17:10:24.427Z,98380.50
2022-11-05T17:12:53.327Z,98378.19
2022-11-05T17:15:24.055Z,98375.50
2022-11-05T17:17:53.061Z,98382.72
2022-11-05T17:20:36.785Z,98380.88
2022-11-05T17:23:09.390Z,98366.59
2022-11-05T17:25:39.821Z,98380.88
2022-11-05T17:28:08.908Z,98379.19
2022-11-05T17:30:40.385Z,98374.84
2022-11-05T17:33:11.172Z,98374.66
2022-11-05T17:35:40.828Z,98379.00
2022-11-05T17:38:10.065Z,98381.03
2022-11-05T17:40:40.444Z,98384.41
2022-11-05T17:43:09.906Z,98387.09
2022-11-05T17:45:43.845Z,98395.16
2022-11-05T17:48:12.771Z,98398.88
2022-11-05T17:50:42.399Z,98406.94
2022-11-05T17:53:11.658Z,98404.25
2022-11-05T17:55:43.194Z,98409.44
2022-11-05T17:58:11.972Z,98416.50
2022-11-05T18:00:40.746Z,98413.97
2022-11-05T18:03:10.407Z,98411.28
2022-11-05T18:05:40.070Z,98408.75
2022-11-05T18:08:08.640Z,98415.63
2022-11-05T18:10:37.987Z,98426.41
2022-11-05T18:13:08.036Z,98401.38
2022-11-05T18:15:40.929Z,98414.81
2022-11-05T18:18:09.891Z,98421.03
2022-11-05T18:20:38.651Z,98426.41
2022-11-05T18:23:07.218Z,98429.75
2022-11-05T18:25:35.713Z,98434.31
2022-11-05T18:28:04.351Z,98428.09
2022-11-05T18:30:34.332Z,98419.00
2022-11-05T18:33:03.033Z,98430.78
2022-11-05T18:35:31.849Z,98421.03
2022-11-05T18:38:00.365Z,98431.78
2022-11-05T18:40:28.888Z,98424.56
2022-11-05T18:42:57.412Z,98428.09
2022-11-05T18:45:29.702Z,98431.63
2022-11-05T18:48:00.531Z,98435.44
2022-11-05T18:50:29.410Z,98444.91
2022-11-05T18:52:58.292Z,98448.94
2022-11-05T18:55:27.264Z,98447.44
2022-11-05T18:57:56.146Z,98454.00
2022-11-05T19:00:25.004Z,98448.63
2022-11-05T19:02:54.269Z,98451.16
2022-11-05T19:05:29.423Z,98455.50
2022-11-05T19:07:58.993Z,98463.59
2022-11-05T19:10:28.067Z,98459.03
2022-11-05T19:12:56.994Z,98466.47
2022-11-05T19:15:26.873Z,98471.84
2022-11-05T19:17:55.729Z,98479.72
2022-11-05T19:20:25.989Z,98475.16
2022-11-05T19:22:54.792Z,98483.25
2022-11-05T19:25:23.584Z,98481.56
2022-11-05T19:27:52.416Z,98483.44
2022-11-05T19:30:22.637Z,98488.63
2022-11-05T19:32:51.470Z,98492.13
2022-11-05T19:35:20.311Z,98502.25
2022-11-05T19:37:53.423Z,98500.41
2022-11-05T19:40:22.400Z,98504.94
2022-11-05T19:42:51.186Z,98508.94
2022-11-05T19:45:43.481Z,98512.81
2022-11-05T19:48:11.428Z,98516.91
2022-11-05T19:50:43.113Z,98524.41
2022-11-05T19:53:13.414Z,98519.53
2022-11-05T19:55:42.377Z,98518.88
2022-11-05T19:58:11.701Z,98521.56
2022-11-05T20:00:40.649Z,98526.63
2022-11-05T20:03:10.516Z,98529.16
2022-11-05T20:05:39.504Z,98535.88
2022-11-05T20:08:08.428Z,98533.38
2022-11-05T20:10:40.009Z,98542.44
2022-11-05T20:13:08.904Z,98548.66
2022-11-05T20:15:39.726Z,98549.53
2022-11-05T20:18:08.721Z,98550.72
2022-11-05T20:20:37.625Z,98553.41
2022-11-05T20:23:06.437Z,98552.53
2022-11-05T20:25:35.384Z,98549.00
2022-11-05T20:28:05.959Z,98548.19
2022-11-05T20:30:35.664Z,98551.06
2022-11-05T20:33:04.709Z,98553.75
2022-11-05T20:35:33.544Z,98557.28
2022-11-05T20:38:02.339Z,98556.44
2022-11-05T20:40:31.155Z,98558.44
2022-11-05T20:43:00.028Z,98564.50
2022-11-05T20:45:30.404Z,98572.56
2022-11-05T20:47:59.456Z,98575.41
2022-11-05T20:50:29.366Z,98569.22
2022-11-05T20:52:58.220Z,98575.41
2022-11-05T20:55:26.752Z,98580.78
2022-11-05T20:57:55.427Z,98581.63
2022-11-05T21:00:24.386Z,98590.03
2022-11-05T21:02:54.738Z,98588.69
2022-11-05T21:05:23.474Z,98592.34
2022-11-05T21:07:52.119Z,98583.81
2022-11-05T21:10:20.641Z,98586.84
2022-11-05T21:12:49.281Z,98583.50
2022-11-05T21:15:23.156Z,98596.25
2022-11-05T21:17:53.092Z,98581.16
2022-11-05T21:20:22.516Z,98578.47
2022-11-05T21:22:51.101Z,98581.16
2022-11-05T21:25:19.555Z,98578.47
2022-11-05T21:27:48.002Z,98585.69
2022-11-05T21:30:16.548Z,98590.88
2022-11-05T21:32:45.068Z,98585.69
2022-11-05T21:35:14.950Z,98585.69
2022-11-05T21:37:43.469Z,98590.56
2022-11-05T21:40:13.060Z,98587.50
2022-11-05T21:42:41.570Z,98583.31
2022-11-05T21:45:11.458Z,98586.00
2022-11-05T21:47:39.979Z,98578.13
2022-11-05T21:50:09.953Z,98587.03
2022-11-05T21:52:57.281Z,98578.13
2022-11-05T21:55:43.531Z,98585.19
2022-11-05T21:58:32.107Z,98581.84
2022-11-05T22:01:01.309Z,98587.22
2022-11-05T22:03:30.115Z,98578.13
2022-11-05T22:05:58.649Z,98580.97
2022-11-05T22:08:28.547Z,98587.38
2022-11-05T22:10:57.066Z,98589.25
2022-11-05T22:13:25.617Z,98590.91
2022-11-05T22:15:57.179Z,98588.22
2022-11-05T22:18:25.916Z,98593.78
2022-11-05T22:20:54.579Z,98598.13
2022-11-05T22:23:23.331Z,98594.63
2022-11-05T22:25:59.888Z,98602.69
2022-11-05T22:28:30.795Z,98595.44
2022-11-05T22:30:59.417Z,98596.63
2022-11-05T22:33:27.979Z,98601.19
2022-11-05T22:35:56.785Z,98602.16
2022-11-05T22:38:25.279Z,98601.34
2022-11-05T22:40:55.252Z,98597.66
2022-11-05T22:43:23.768Z,98598.50
2022-11-05T22:45:52.312Z,98588.56
2022-11-05T22:48:20.804Z,98595.78
2022-11-05T22:50:49.338Z,98594.09
2022-11-05T22:53:17.953Z,98596.63
2022-11-05T22:55:46.476Z,98593.94
2022-11-05T22:58:16.532Z,98594.97
2022-11-05T23:00:45.172Z,98598.28
2022-11-05T23:03:14.397Z,98603.69
2022-11-05T23:05:42.943Z,98593.28
2022-11-05T23:08:28.905Z,98596.63
2022-11-05T23:11:22.890Z,98603.34
2022-11-05T23:13:52.903Z,98602.81
2022-11-05T23:16:38.802Z,98601.63
2022-11-05T23:19:24.957Z,98603.50
2022-11-05T23:22:10.992Z,98604.16
2022-11-05T23:24:39.685Z,98601.97
2022-11-05T23:27:08.307Z,98600.97
2022-11-05T23:29:38.700Z,98605.34
2022-11-05T23:32:25.151Z,98612.25
2022-11-05T23:34:53.811Z,98618.81
2022-11-05T23:37:40.702Z,98616.47
2022-11-05T23:40:12.201Z,98612.09
2022-11-05T23:42:58.268Z,98615.44
2022-11-05T23:45:45.701Z,98618.97
2022-11-05T23:48:17.398Z,98616.47
2022-11-05T23:50:48.204Z,98618.13
2022-11-05T23:53:16.694Z,98617.47
2022-11-05T23:55:45.247Z,98608.56
2022-11-05T23:58:13.977Z,98621.84
